sensor_id;sensor_type;location;lat;lon;timestamp;P1;durP1;ratioP1;P2;durP2;ratioP2
76727;SDS011;65652;53.132;18.026;2023-02-15T00:00:35;139.80;;;46.90;;
76727;SDS011;65652;53.132;18.026;2023-02-15T00:03:21;160.90;;;51.60;;
76727;SDS011;65652;53.132;18.026;2023-02-15T00:05:48;161.40;;;53.30;;
76727;SDS011;65652;53.132;18.026;2023-02-15T00:08:14;152.40;;;48.60;;
76727;SDS011;65652;53.132;18.026;2023-02-15T00:10:40;142.20;;;48.50;;
76727;SDS011;65652;53.132;18.026;2023-02-15T00:13:06;140.10;;;49.10;;
76727;SDS011;65652;53.132;18.026;2023-02-15T00:15:32;138.40;;;48.80;;
76727;SDS011;65652;53.132;18.026;2023-02-15T00:17:58;151.70;;;48.70;;
76727;SDS011;65652;53.132;18.026;2023-02-15T00:20:25;118.70;;;44.00;;
76727;SDS011;65652;53.132;18.026;2023-02-15T00:22:51;138.50;;;48.60;;
76727;SDS011;65652;53.132;18.026;2023-02-15T00:25:17;131.60;;;47.30;;
76727;SDS011;65652;53.132;18.026;2023-02-15T00:27:43;132.70;;;47.90;;
76727;SDS011;65652;53.132;18.026;2023-02-15T00:30:09;119.50;;;44.80;;
76727;SDS011;65652;53.132;18.026;2023-02-15T00:32:36;136.70;;;48.20;;
76727;SDS011;65652;53.132;18.026;2023-02-15T00:35:02;128.20;;;45.60;;
76727;SDS011;65652;53.132;18.026;2023-02-15T00:37:28;127.20;;;44.20;;
76727;SDS011;65652;53.132;18.026;2023-02-15T00:39:54;128.10;;;44.80;;
76727;SDS011;65652;53.132;18.026;2023-02-15T00:42:21;122.30;;;45.50;;
76727;SDS011;65652;53.132;18.026;2023-02-15T00:44:47;134.10;;;47.00;;
76727;SDS011;65652;53.132;18.026;2023-02-15T00:47:13;111.30;;;43.20;;
76727;SDS011;65652;53.132;18.026;2023-02-15T00:49:39;122.50;;;44.80;;
76727;SDS011;65652;53.132;18.026;2023-02-15T00:52:05;120.30;;;45.10;;
76727;SDS011;65652;53.132;18.026;2023-02-15T00:54:31;125.70;;;44.80;;
76727;SDS011;65652;53.132;18.026;2023-02-15T00:56:57;118.40;;;46.70;;
76727;SDS011;65652;53.132;18.026;2023-02-15T00:59:24;125.50;;;47.30;;
76727;SDS011;65652;53.132;18.026;2023-02-15T01:01:50;117.80;;;42.30;;
76727;SDS011;65652;53.132;18.026;2023-02-15T01:04:18;128.40;;;46.10;;
76727;SDS011;65652;53.132;18.026;2023-02-15T01:06:44;124.20;;;46.40;;
76727;SDS011;65652;53.132;18.026;2023-02-15T01:09:10;117.20;;;44.60;;
76727;SDS011;65652;53.132;18.026;2023-02-15T01:11:38;112.50;;;43.10;;
76727;SDS011;65652;53.132;18.026;2023-02-15T01:14:04;119.30;;;43.80;;
76727;SDS011;65652;53.132;18.026;2023-02-15T01:16:31;116.40;;;42.70;;
76727;SDS011;65652;53.132;18.026;2023-02-15T01:18:58;99.90;;;40.60;;
76727;SDS011;65652;53.132;18.026;2023-02-15T01:21:25;109.40;;;40.90;;
76727;SDS011;65652;53.132;18.026;2023-02-15T01:23:51;109.80;;;40.60;;
76727;SDS011;65652;53.132;18.026;2023-02-15T01:26:18;106.00;;;42.60;;
76727;SDS011;65652;53.132;18.026;2023-02-15T01:28:45;105.50;;;42.30;;
76727;SDS011;65652;53.132;18.026;2023-02-15T01:31:12;108.10;;;42.30;;
76727;SDS011;65652;53.132;18.026;2023-02-15T01:33:41;109.70;;;43.60;;
76727;SDS011;65652;53.132;18.026;2023-02-15T01:36:09;111.40;;;42.00;;
76727;SDS011;65652;53.132;18.026;2023-02-15T01:38:35;103.20;;;41.10;;
76727;SDS011;65652;53.132;18.026;2023-02-15T01:41:02;110.90;;;40.50;;
76727;SDS011;65652;53.132;18.026;2023-02-15T01:43:53;106.90;;;43.20;;
76727;SDS011;65652;53.132;18.026;2023-02-15T01:46:28;118.00;;;46.20;;
76727;SDS011;65652;53.132;18.026;2023-02-15T01:49:09;115.90;;;44.60;;
76727;SDS011;65652;53.132;18.026;2023-02-15T01:51:42;119.10;;;45.30;;
76727;SDS011;65652;53.132;18.026;2023-02-15T01:54:12;116.90;;;44.60;;
76727;SDS011;65652;53.132;18.026;2023-02-15T01:56:45;114.10;;;44.30;;
76727;SDS011;65652;53.132;18.026;2023-02-15T01:59:19;108.10;;;43.10;;
76727;SDS011;65652;53.132;18.026;2023-02-15T02:01:48;110.90;;;42.70;;
76727;SDS011;65652;53.132;18.026;2023-02-15T02:04:20;109.00;;;38.60;;
76727;SDS011;65652;53.132;18.026;2023-02-15T02:06:55;105.80;;;39.00;;
76727;SDS011;65652;53.132;18.026;2023-02-15T02:09:24;108.40;;;39.80;;
76727;SDS011;65652;53.132;18.026;2023-02-15T02:11:51;101.60;;;38.70;;
76727;SDS011;65652;53.132;18.026;2023-02-15T02:14:19;101.80;;;39.70;;
76727;SDS011;65652;53.132;18.026;2023-02-15T02:16:52;109.20;;;40.80;;
76727;SDS011;65652;53.132;18.026;2023-02-15T02:25:31;100.80;;;39.80;;
76727;SDS011;65652;53.132;18.026;2023-02-15T02:42:09;85.10;;;36.50;;
76727;SDS011;65652;53.132;18.026;2023-02-15T02:50:18;80.70;;;34.10;;
76727;SDS011;65652;53.132;18.026;2023-02-15T02:52:49;89.70;;;34.80;;
76727;SDS011;65652;53.132;18.026;2023-02-15T02:55:25;86.00;;;35.40;;
76727;SDS011;65652;53.132;18.026;2023-02-15T03:00:37;93.90;;;34.70;;
76727;SDS011;65652;53.132;18.026;2023-02-15T03:03:11;80.30;;;34.40;;
76727;SDS011;65652;53.132;18.026;2023-02-15T03:05:45;82.00;;;34.10;;
76727;SDS011;65652;53.132;18.026;2023-02-15T03:08:16;85.30;;;34.90;;
76727;SDS011;65652;53.132;18.026;2023-02-15T03:10:48;75.20;;;27.80;;
76727;SDS011;65652;53.132;18.026;2023-02-15T03:13:19;74.10;;;32.90;;
76727;SDS011;65652;53.132;18.026;2023-02-15T03:15:47;73.80;;;30.40;;
76727;SDS011;65652;53.132;18.026;2023-02-15T03:18:35;72.50;;;30.80;;
76727;SDS011;65652;53.132;18.026;2023-02-15T03:21:05;69.30;;;29.10;;
76727;SDS011;65652;53.132;18.026;2023-02-15T03:23:34;60.00;;;24.50;;
76727;SDS011;65652;53.132;18.026;2023-02-15T03:26:03;69.60;;;30.00;;
76727;SDS011;65652;53.132;18.026;2023-02-15T03:28:41;70.60;;;29.70;;
76727;SDS011;65652;53.132;18.026;2023-02-15T03:31:09;69.10;;;28.00;;
76727;SDS011;65652;53.132;18.026;2023-02-15T03:33:40;59.40;;;25.20;;
76727;SDS011;65652;53.132;18.026;2023-02-15T03:41:57;48.50;;;20.80;;
76727;SDS011;65652;53.132;18.026;2023-02-15T03:44:35;50.30;;;19.90;;
76727;SDS011;65652;53.132;18.026;2023-02-15T03:47:18;47.40;;;20.10;;
76727;SDS011;65652;53.132;18.026;2023-02-15T03:49:53;47.50;;;20.60;;
76727;SDS011;65652;53.132;18.026;2023-02-15T03:52:21;42.70;;;18.90;;
76727;SDS011;65652;53.132;18.026;2023-02-15T03:54:50;44.60;;;18.00;;
76727;SDS011;65652;53.132;18.026;2023-02-15T04:00:11;45.50;;;19.90;;
76727;SDS011;65652;53.132;18.026;2023-02-15T04:05:42;43.80;;;18.00;;
76727;SDS011;65652;53.132;18.026;2023-02-15T04:08:09;45.20;;;20.10;;
76727;SDS011;65652;53.132;18.026;2023-02-15T04:10:36;44.10;;;19.00;;
76727;SDS011;65652;53.132;18.026;2023-02-15T04:13:18;42.80;;;18.60;;
76727;SDS011;65652;53.132;18.026;2023-02-15T04:15:46;42.20;;;16.60;;
76727;SDS011;65652;53.132;18.026;2023-02-15T04:18:37;40.20;;;18.00;;
76727;SDS011;65652;53.132;18.026;2023-02-15T04:21:24;45.40;;;18.20;;
76727;SDS011;65652;53.132;18.026;2023-02-15T04:24:11;41.90;;;17.80;;
76727;SDS011;65652;53.132;18.026;2023-02-15T04:26:56;44.60;;;17.80;;
76727;SDS011;65652;53.132;18.026;2023-02-15T04:29:24;44.30;;;18.50;;
76727;SDS011;65652;53.132;18.026;2023-02-15T04:34:18;42.90;;;17.30;;
76727;SDS011;65652;53.132;18.026;2023-02-15T04:36:44;50.00;;;20.00;;
76727;SDS011;65652;53.132;18.026;2023-02-15T04:39:14;44.80;;;18.50;;
76727;SDS011;65652;53.132;18.026;2023-02-15T04:41:41;47.10;;;19.90;;
76727;SDS011;65652;53.132;18.026;2023-02-15T04:44:07;47.20;;;20.50;;
76727;SDS011;65652;53.132;18.026;2023-02-15T04:46:34;46.30;;;22.00;;
76727;SDS011;65652;53.132;18.026;2023-02-15T04:49:01;53.20;;;21.00;;
76727;SDS011;65652;53.132;18.026;2023-02-15T04:51:27;42.10;;;19.40;;
76727;SDS011;65652;53.132;18.026;2023-02-15T04:53:53;45.60;;;18.50;;
76727;SDS011;65652;53.132;18.026;2023-02-15T04:56:20;43.50;;;19.60;;
76727;SDS011;65652;53.132;18.026;2023-02-15T04:58:47;50.30;;;19.70;;
76727;SDS011;65652;53.132;18.026;2023-02-15T05:01:13;49.60;;;20.60;;
76727;SDS011;65652;53.132;18.026;2023-02-15T05:03:39;48.40;;;22.30;;
76727;SDS011;65652;53.132;18.026;2023-02-15T05:06:05;43.20;;;17.40;;
76727;SDS011;65652;53.132;18.026;2023-02-15T05:08:32;50.20;;;20.50;;
76727;SDS011;65652;53.132;18.026;2023-02-15T05:10:58;48.40;;;20.80;;
76727;SDS011;65652;53.132;18.026;2023-02-15T05:13:24;55.00;;;22.00;;
76727;SDS011;65652;53.132;18.026;2023-02-15T05:15:51;51.20;;;21.20;;
76727;SDS011;65652;53.132;18.026;2023-02-15T05:18:19;51.90;;;21.40;;
76727;SDS011;65652;53.132;18.026;2023-02-15T05:20:47;52.30;;;22.20;;
76727;SDS011;65652;53.132;18.026;2023-02-15T05:23:14;49.40;;;21.90;;
76727;SDS011;65652;53.132;18.026;2023-02-15T05:25:41;54.40;;;21.00;;
76727;SDS011;65652;53.132;18.026;2023-02-15T05:28:30;52.70;;;21.10;;
76727;SDS011;65652;53.132;18.026;2023-02-15T05:31:06;48.10;;;20.70;;
76727;SDS011;65652;53.132;18.026;2023-02-15T05:33:35;45.00;;;20.60;;
76727;SDS011;65652;53.132;18.026;2023-02-15T05:36:02;44.10;;;19.80;;
76727;SDS011;65652;53.132;18.026;2023-02-15T05:38:29;44.20;;;19.20;;
76727;SDS011;65652;53.132;18.026;2023-02-15T05:40:55;46.70;;;18.90;;
76727;SDS011;65652;53.132;18.026;2023-02-15T05:43:22;44.50;;;19.70;;
76727;SDS011;65652;53.132;18.026;2023-02-15T05:45:50;47.90;;;19.80;;
76727;SDS011;65652;53.132;18.026;2023-02-15T05:48:18;45.80;;;19.20;;
76727;SDS011;65652;53.132;18.026;2023-02-15T05:50:46;45.00;;;18.70;;
76727;SDS011;65652;53.132;18.026;2023-02-15T05:53:12;36.40;;;16.50;;
76727;SDS011;65652;53.132;18.026;2023-02-15T05:55:39;49.70;;;19.40;;
76727;SDS011;65652;53.132;18.026;2023-02-15T05:58:06;44.90;;;17.40;;
76727;SDS011;65652;53.132;18.026;2023-02-15T06:00:33;45.40;;;19.30;;
76727;SDS011;65652;53.132;18.026;2023-02-15T06:03:00;45.10;;;18.50;;
76727;SDS011;65652;53.132;18.026;2023-02-15T06:05:26;40.00;;;17.60;;
76727;SDS011;65652;53.132;18.026;2023-02-15T06:07:52;41.60;;;19.00;;
76727;SDS011;65652;53.132;18.026;2023-02-15T06:10:18;41.20;;;17.70;;
76727;SDS011;65652;53.132;18.026;2023-02-15T06:12:44;45.20;;;18.10;;
76727;SDS011;65652;53.132;18.026;2023-02-15T06:15:11;43.60;;;18.40;;
76727;SDS011;65652;53.132;18.026;2023-02-15T06:17:37;43.70;;;18.70;;
76727;SDS011;65652;53.132;18.026;2023-02-15T06:20:03;38.70;;;16.90;;
76727;SDS011;65652;53.132;18.026;2023-02-15T06:22:30;46.20;;;18.60;;
76727;SDS011;65652;53.132;18.026;2023-02-15T06:24:56;41.20;;;16.90;;
76727;SDS011;65652;53.132;18.026;2023-02-15T06:27:22;41.20;;;16.90;;
76727;SDS011;65652;53.132;18.026;2023-02-15T06:29:48;40.90;;;18.30;;
76727;SDS011;65652;53.132;18.026;2023-02-15T06:32:15;42.80;;;19.00;;
76727;SDS011;65652;53.132;18.026;2023-02-15T06:34:41;46.30;;;18.40;;
76727;SDS011;65652;53.132;18.026;2023-02-15T06:37:07;45.40;;;19.10;;
76727;SDS011;65652;53.132;18.026;2023-02-15T06:39:34;46.50;;;20.20;;
76727;SDS011;65652;53.132;18.026;2023-02-15T06:42:00;46.30;;;20.50;;
76727;SDS011;65652;53.132;18.026;2023-02-15T06:44:26;46.20;;;19.40;;
76727;SDS011;65652;53.132;18.026;2023-02-15T06:46:52;46.40;;;20.60;;
76727;SDS011;65652;53.132;18.026;2023-02-15T06:49:19;44.00;;;19.10;;
76727;SDS011;65652;53.132;18.026;2023-02-15T06:51:45;44.80;;;18.10;;
76727;SDS011;65652;53.132;18.026;2023-02-15T06:54:11;46.50;;;18.40;;
76727;SDS011;65652;53.132;18.026;2023-02-15T06:56:37;46.00;;;19.60;;
76727;SDS011;65652;53.132;18.026;2023-02-15T06:59:04;45.60;;;20.60;;
76727;SDS011;65652;53.132;18.026;2023-02-15T07:01:30;47.20;;;19.20;;
76727;SDS011;65652;53.132;18.026;2023-02-15T07:03:56;56.90;;;23.30;;
76727;SDS011;65652;53.132;18.026;2023-02-15T07:06:22;54.80;;;20.70;;
76727;SDS011;65652;53.132;18.026;2023-02-15T07:08:49;59.30;;;24.30;;
76727;SDS011;65652;53.132;18.026;2023-02-15T07:11:15;50.90;;;22.40;;
76727;SDS011;65652;53.132;18.026;2023-02-15T07:13:59;55.00;;;21.40;;
76727;SDS011;65652;53.132;18.026;2023-02-15T07:16:25;59.10;;;23.40;;
76727;SDS011;65652;53.132;18.026;2023-02-15T07:18:52;50.30;;;21.40;;
76727;SDS011;65652;53.132;18.026;2023-02-15T07:21:18;54.60;;;23.40;;
76727;SDS011;65652;53.132;18.026;2023-02-15T07:23:44;51.30;;;21.80;;
76727;SDS011;65652;53.132;18.026;2023-02-15T07:26:10;49.60;;;22.50;;
76727;SDS011;65652;53.132;18.026;2023-02-15T07:28:37;50.30;;;20.50;;
76727;SDS011;65652;53.132;18.026;2023-02-15T07:31:04;53.10;;;22.80;;
76727;SDS011;65652;53.132;18.026;2023-02-15T07:33:31;51.30;;;20.80;;
76727;SDS011;65652;53.132;18.026;2023-02-15T07:35:59;55.20;;;21.80;;
76727;SDS011;65652;53.132;18.026;2023-02-15T07:38:35;52.50;;;21.00;;
76727;SDS011;65652;53.132;18.026;2023-02-15T07:41:04;48.00;;;19.90;;
76727;SDS011;65652;53.132;18.026;2023-02-15T07:43:35;56.40;;;23.50;;
76727;SDS011;65652;53.132;18.026;2023-02-15T07:46:04;56.30;;;22.60;;
76727;SDS011;65652;53.132;18.026;2023-02-15T07:48:33;51.90;;;21.60;;
76727;SDS011;65652;53.132;18.026;2023-02-15T07:51:01;60.00;;;21.20;;
76727;SDS011;65652;53.132;18.026;2023-02-15T07:53:29;54.50;;;22.20;;
76727;SDS011;65652;53.132;18.026;2023-02-15T07:56:06;48.10;;;20.70;;
76727;SDS011;65652;53.132;18.026;2023-02-15T07:58:34;47.70;;;20.30;;
76727;SDS011;65652;53.132;18.026;2023-02-15T08:01:26;53.30;;;22.90;;
76727;SDS011;65652;53.132;18.026;2023-02-15T08:03:56;51.80;;;22.00;;
76727;SDS011;65652;53.132;18.026;2023-02-15T08:06:24;56.20;;;23.20;;
76727;SDS011;65652;53.132;18.026;2023-02-15T08:08:52;53.70;;;21.60;;
76727;SDS011;65652;53.132;18.026;2023-02-15T08:16:29;53.60;;;21.00;;
76727;SDS011;65652;53.132;18.026;2023-02-15T08:18:59;47.90;;;20.70;;
76727;SDS011;65652;53.132;18.026;2023-02-15T08:21:28;44.20;;;19.30;;
76727;SDS011;65652;53.132;18.026;2023-02-15T08:23:55;43.80;;;19.50;;
76727;SDS011;65652;53.132;18.026;2023-02-15T08:26:22;43.60;;;18.20;;
76727;SDS011;65652;53.132;18.026;2023-02-15T08:28:50;38.80;;;17.20;;
76727;SDS011;65652;53.132;18.026;2023-02-15T08:31:16;44.00;;;19.00;;
76727;SDS011;65652;53.132;18.026;2023-02-15T08:33:44;40.80;;;16.80;;
76727;SDS011;65652;53.132;18.026;2023-02-15T08:36:13;40.70;;;17.40;;
76727;SDS011;65652;53.132;18.026;2023-02-15T08:38:41;37.70;;;16.50;;
76727;SDS011;65652;53.132;18.026;2023-02-15T08:41:15;34.60;;;15.90;;
76727;SDS011;65652;53.132;18.026;2023-02-15T08:43:45;30.80;;;13.20;;
76727;SDS011;65652;53.132;18.026;2023-02-15T08:46:13;25.80;;;12.30;;
76727;SDS011;65652;53.132;18.026;2023-02-15T08:48:41;32.40;;;15.00;;
76727;SDS011;65652;53.132;18.026;2023-02-15T08:51:09;30.10;;;13.40;;
76727;SDS011;65652;53.132;18.026;2023-02-15T08:53:41;24.60;;;10.90;;
76727;SDS011;65652;53.132;18.026;2023-02-15T08:56:11;26.40;;;11.10;;
76727;SDS011;65652;53.132;18.026;2023-02-15T08:58:38;29.70;;;11.70;;
76727;SDS011;65652;53.132;18.026;2023-02-15T09:01:08;26.10;;;11.40;;
76727;SDS011;65652;53.132;18.026;2023-02-15T09:03:35;20.60;;;10.10;;
76727;SDS011;65652;53.132;18.026;2023-02-15T09:06:02;24.20;;;11.00;;
76727;SDS011;65652;53.132;18.026;2023-02-15T09:08:28;26.00;;;11.90;;
76727;SDS011;65652;53.132;18.026;2023-02-15T09:11:03;22.10;;;11.10;;
76727;SDS011;65652;53.132;18.026;2023-02-15T09:13:31;26.50;;;11.20;;
76727;SDS011;65652;53.132;18.026;2023-02-15T09:16:01;16.80;;;8.50;;
76727;SDS011;65652;53.132;18.026;2023-02-15T09:18:29;25.20;;;11.60;;
76727;SDS011;65652;53.132;18.026;2023-02-15T09:23:23;25.40;;;11.00;;
76727;SDS011;65652;53.132;18.026;2023-02-15T09:25:49;20.50;;;9.60;;
76727;SDS011;65652;53.132;18.026;2023-02-15T09:28:15;24.40;;;11.40;;
76727;SDS011;65652;53.132;18.026;2023-02-15T09:30:41;22.90;;;10.00;;
76727;SDS011;65652;53.132;18.026;2023-02-15T09:33:07;22.10;;;10.00;;
76727;SDS011;65652;53.132;18.026;2023-02-15T09:35:34;24.20;;;10.90;;
76727;SDS011;65652;53.132;18.026;2023-02-15T09:38:00;20.70;;;9.20;;
76727;SDS011;65652;53.132;18.026;2023-02-15T09:40:26;25.70;;;12.80;;
76727;SDS011;65652;53.132;18.026;2023-02-15T09:43:03;21.10;;;10.40;;
76727;SDS011;65652;53.132;18.026;2023-02-15T09:48:50;21.90;;;10.90;;
76727;SDS011;65652;53.132;18.026;2023-02-15T09:57:39;13.60;;;6.60;;
76727;SDS011;65652;53.132;18.026;2023-02-15T10:02:41;17.00;;;8.20;;
76727;SDS011;65652;53.132;18.026;2023-02-15T10:10:54;24.00;;;10.10;;
76727;SDS011;65652;53.132;18.026;2023-02-15T10:13:52;28.40;;;11.80;;
76727;SDS011;65652;53.132;18.026;2023-02-15T10:16:27;15.80;;;7.80;;
76727;SDS011;65652;53.132;18.026;2023-02-15T10:24:29;25.90;;;11.60;;
76727;SDS011;65652;53.132;18.026;2023-02-15T10:27:19;29.50;;;11.00;;
76727;SDS011;65652;53.132;18.026;2023-02-15T10:35:00;28.80;;;13.40;;
76727;SDS011;65652;53.132;18.026;2023-02-15T10:50:55;26.20;;;10.30;;
76727;SDS011;65652;53.132;18.026;2023-02-15T10:56:19;43.60;;;18.70;;
76727;SDS011;65652;53.132;18.026;2023-02-15T11:04:29;44.00;;;19.20;;
76727;SDS011;65652;53.132;18.026;2023-02-15T11:07:35;35.80;;;15.70;;
76727;SDS011;65652;53.132;18.026;2023-02-15T11:12:52;39.00;;;16.90;;
76727;SDS011;65652;53.132;18.026;2023-02-15T11:18:02;43.30;;;18.60;;
76727;SDS011;65652;53.132;18.026;2023-02-15T11:20:41;48.20;;;21.00;;
76727;SDS011;65652;53.132;18.026;2023-02-15T11:23:15;38.10;;;16.00;;
76727;SDS011;65652;53.132;18.026;2023-02-15T11:28:31;31.30;;;13.30;;
76727;SDS011;65652;53.132;18.026;2023-02-15T11:31:13;44.70;;;19.20;;
76727;SDS011;65652;53.132;18.026;2023-02-15T11:33:45;52.90;;;22.50;;
76727;SDS011;65652;53.132;18.026;2023-02-15T11:36:17;43.80;;;18.20;;
76727;SDS011;65652;53.132;18.026;2023-02-15T11:38:49;49.30;;;20.60;;
76727;SDS011;65652;53.132;18.026;2023-02-15T11:41:23;27.70;;;11.20;;
76727;SDS011;65652;53.132;18.026;2023-02-15T11:46:41;47.60;;;17.00;;
76727;SDS011;65652;53.132;18.026;2023-02-15T11:49:41;37.70;;;16.10;;
76727;SDS011;65652;53.132;18.026;2023-02-15T11:52:02;37.80;;;16.10;;
76727;SDS011;65652;53.132;18.026;2023-02-15T11:54:33;41.50;;;18.20;;
76727;SDS011;65652;53.132;18.026;2023-02-15T11:57:45;33.20;;;14.60;;
76727;SDS011;65652;53.132;18.026;2023-02-15T12:02:37;32.80;;;15.60;;
76727;SDS011;65652;53.132;18.026;2023-02-15T12:05:10;33.40;;;14.80;;
76727;SDS011;65652;53.132;18.026;2023-02-15T12:10:30;36.00;;;16.70;;
76727;SDS011;65652;53.132;18.026;2023-02-15T12:13:12;42.90;;;18.70;;
76727;SDS011;65652;53.132;18.026;2023-02-15T12:15:42;42.40;;;18.30;;
76727;SDS011;65652;53.132;18.026;2023-02-15T12:18:19;42.70;;;16.90;;
76727;SDS011;65652;53.132;18.026;2023-02-15T12:21:00;27.70;;;11.50;;
76727;SDS011;65652;53.132;18.026;2023-02-15T12:23:30;41.00;;;18.20;;
76727;SDS011;65652;53.132;18.026;2023-02-15T12:25:58;34.90;;;15.00;;
76727;SDS011;65652;53.132;18.026;2023-02-15T12:28:32;31.30;;;14.60;;
76727;SDS011;65652;53.132;18.026;2023-02-15T12:31:02;45.70;;;18.20;;
76727;SDS011;65652;53.132;18.026;2023-02-15T12:33:34;34.90;;;15.10;;
76727;SDS011;65652;53.132;18.026;2023-02-15T12:36:09;43.10;;;17.70;;
76727;SDS011;65652;53.132;18.026;2023-02-15T12:38:41;46.70;;;20.70;;
76727;SDS011;65652;53.132;18.026;2023-02-15T12:41:23;38.10;;;15.50;;
76727;SDS011;65652;53.132;18.026;2023-02-15T12:44:09;33.70;;;14.30;;
76727;SDS011;65652;53.132;18.026;2023-02-15T12:46:55;42.90;;;17.90;;
76727;SDS011;65652;53.132;18.026;2023-02-15T12:49:24;40.20;;;17.50;;
76727;SDS011;65652;53.132;18.026;2023-02-15T12:51:52;35.60;;;16.20;;
76727;SDS011;65652;53.132;18.026;2023-02-15T12:56:57;39.60;;;16.70;;
76727;SDS011;65652;53.132;18.026;2023-02-15T12:59:24;46.30;;;19.40;;
76727;SDS011;65652;53.132;18.026;2023-02-15T13:01:51;41.30;;;17.20;;
76727;SDS011;65652;53.132;18.026;2023-02-15T13:06:53;30.40;;;13.70;;
76727;SDS011;65652;53.132;18.026;2023-02-15T13:14:52;46.90;;;19.40;;
76727;SDS011;65652;53.132;18.026;2023-02-15T13:17:24;41.00;;;16.10;;
76727;SDS011;65652;53.132;18.026;2023-02-15T13:19:56;38.80;;;16.70;;
76727;SDS011;65652;53.132;18.026;2023-02-15T13:22:43;40.40;;;17.00;;
76727;SDS011;65652;53.132;18.026;2023-02-15T13:25:22;31.40;;;12.60;;
76727;SDS011;65652;53.132;18.026;2023-02-15T13:27:54;48.40;;;19.70;;
76727;SDS011;65652;53.132;18.026;2023-02-15T13:30:24;48.40;;;19.30;;
76727;SDS011;65652;53.132;18.026;2023-02-15T13:32:57;42.90;;;16.70;;
76727;SDS011;65652;53.132;18.026;2023-02-15T13:35:26;38.00;;;14.50;;
76727;SDS011;65652;53.132;18.026;2023-02-15T13:48:51;47.00;;;17.70;;
76727;SDS011;65652;53.132;18.026;2023-02-15T13:51:45;47.90;;;19.90;;
76727;SDS011;65652;53.132;18.026;2023-02-15T14:07:53;46.60;;;18.70;;
76727;SDS011;65652;53.132;18.026;2023-02-15T14:17:09;50.00;;;18.90;;
76727;SDS011;65652;53.132;18.026;2023-02-15T14:19:46;54.10;;;21.20;;
76727;SDS011;65652;53.132;18.026;2023-02-15T14:22:32;51.20;;;20.80;;
76727;SDS011;65652;53.132;18.026;2023-02-15T14:25:16;39.80;;;13.70;;
76727;SDS011;65652;53.132;18.026;2023-02-15T14:28:06;49.00;;;18.60;;
76727;SDS011;65652;53.132;18.026;2023-02-15T14:33:07;45.00;;;18.50;;
76727;SDS011;65652;53.132;18.026;2023-02-15T14:35:51;30.60;;;11.80;;
76727;SDS011;65652;53.132;18.026;2023-02-15T14:39:01;43.80;;;16.70;;
76727;SDS011;65652;53.132;18.026;2023-02-15T14:41:14;49.90;;;18.60;;
76727;SDS011;65652;53.132;18.026;2023-02-15T14:43:47;52.70;;;19.90;;
76727;SDS011;65652;53.132;18.026;2023-02-15T14:54:09;50.00;;;20.40;;
76727;SDS011;65652;53.132;18.026;2023-02-15T14:56:37;50.70;;;18.60;;
76727;SDS011;65652;53.132;18.026;2023-02-15T14:59:19;38.90;;;15.40;;
76727;SDS011;65652;53.132;18.026;2023-02-15T15:02:29;51.90;;;20.20;;
76727;SDS011;65652;53.132;18.026;2023-02-15T15:04:45;45.40;;;16.90;;
76727;SDS011;65652;53.132;18.026;2023-02-15T15:07:22;41.00;;;16.00;;
76727;SDS011;65652;53.132;18.026;2023-02-15T15:12:55;34.90;;;13.90;;
76727;SDS011;65652;53.132;18.026;2023-02-15T15:18:07;48.80;;;18.70;;
76727;SDS011;65652;53.132;18.026;2023-02-15T15:20:47;41.30;;;16.80;;
76727;SDS011;65652;53.132;18.026;2023-02-15T15:25:47;50.80;;;19.60;;
76727;SDS011;65652;53.132;18.026;2023-02-15T15:31:47;43.40;;;16.40;;
76727;SDS011;65652;53.132;18.026;2023-02-15T15:36:39;42.20;;;16.80;;
76727;SDS011;65652;53.132;18.026;2023-02-15T15:41:43;43.20;;;16.50;;
76727;SDS011;65652;53.132;18.026;2023-02-15T15:47:31;54.70;;;21.10;;
76727;SDS011;65652;53.132;18.026;2023-02-15T15:50:16;46.30;;;18.20;;
76727;SDS011;65652;53.132;18.026;2023-02-15T15:52:48;38.90;;;16.20;;
76727;SDS011;65652;53.132;18.026;2023-02-15T15:55:18;56.60;;;22.50;;
76727;SDS011;65652;53.132;18.026;2023-02-15T15:57:49;33.00;;;13.90;;
76727;SDS011;65652;53.132;18.026;2023-02-15T16:03:12;41.90;;;16.10;;
76727;SDS011;65652;53.132;18.026;2023-02-15T16:05:46;40.00;;;16.70;;
76727;SDS011;65652;53.132;18.026;2023-02-15T16:10:54;44.50;;;16.50;;
76727;SDS011;65652;53.132;18.026;2023-02-15T16:13:21;52.00;;;20.50;;
76727;SDS011;65652;53.132;18.026;2023-02-15T16:15:50;50.50;;;20.40;;
76727;SDS011;65652;53.132;18.026;2023-02-15T16:18:20;49.80;;;18.70;;
76727;SDS011;65652;53.132;18.026;2023-02-15T16:20:52;58.20;;;20.20;;
76727;SDS011;65652;53.132;18.026;2023-02-15T16:29:18;50.50;;;19.70;;
76727;SDS011;65652;53.132;18.026;2023-02-15T16:31:57;52.10;;;19.90;;
76727;SDS011;65652;53.132;18.026;2023-02-15T16:34:25;52.50;;;20.80;;
76727;SDS011;65652;53.132;18.026;2023-02-15T16:37:12;57.20;;;22.50;;
76727;SDS011;65652;53.132;18.026;2023-02-15T16:39:47;54.60;;;21.40;;
76727;SDS011;65652;53.132;18.026;2023-02-15T16:42:14;53.00;;;20.10;;
76727;SDS011;65652;53.132;18.026;2023-02-15T16:47:12;53.50;;;20.80;;
76727;SDS011;65652;53.132;18.026;2023-02-15T16:49:46;50.70;;;19.60;;
76727;SDS011;65652;53.132;18.026;2023-02-15T16:52:24;53.00;;;20.00;;
76727;SDS011;65652;53.132;18.026;2023-02-15T16:54:55;54.20;;;20.80;;
76727;SDS011;65652;53.132;18.026;2023-02-15T16:57:25;56.80;;;20.40;;
76727;SDS011;65652;53.132;18.026;2023-02-15T16:59:55;53.90;;;20.90;;
76727;SDS011;65652;53.132;18.026;2023-02-15T17:02:27;51.90;;;19.90;;
76727;SDS011;65652;53.132;18.026;2023-02-15T17:07:40;54.90;;;20.50;;
76727;SDS011;65652;53.132;18.026;2023-02-15T17:13:28;54.60;;;21.70;;
76727;SDS011;65652;53.132;18.026;2023-02-15T17:18:25;51.40;;;19.60;;
76727;SDS011;65652;53.132;18.026;2023-02-15T17:20:55;53.40;;;20.30;;
76727;SDS011;65652;53.132;18.026;2023-02-15T17:23:34;59.40;;;22.60;;
76727;SDS011;65652;53.132;18.026;2023-02-15T17:26:19;58.80;;;22.90;;
76727;SDS011;65652;53.132;18.026;2023-02-15T17:28:49;59.10;;;22.70;;
76727;SDS011;65652;53.132;18.026;2023-02-15T17:31:22;62.10;;;22.30;;
76727;SDS011;65652;53.132;18.026;2023-02-15T17:33:54;58.00;;;21.90;;
76727;SDS011;65652;53.132;18.026;2023-02-15T17:36:23;56.00;;;22.00;;
76727;SDS011;65652;53.132;18.026;2023-02-15T17:41:23;57.10;;;20.90;;
76727;SDS011;65652;53.132;18.026;2023-02-15T17:43:51;57.70;;;20.70;;
76727;SDS011;65652;53.132;18.026;2023-02-15T17:46:17;57.80;;;21.40;;
76727;SDS011;65652;53.132;18.026;2023-02-15T17:48:47;51.80;;;20.10;;
76727;SDS011;65652;53.132;18.026;2023-02-15T17:51:15;56.30;;;19.90;;
76727;SDS011;65652;53.132;18.026;2023-02-15T17:53:43;63.60;;;22.20;;
76727;SDS011;65652;53.132;18.026;2023-02-15T17:56:29;65.90;;;24.50;;
76727;SDS011;65652;53.132;18.026;2023-02-15T17:58:55;64.10;;;23.90;;
76727;SDS011;65652;53.132;18.026;2023-02-15T18:01:22;54.00;;;19.90;;